Time;durP1;ratioP1;P1;durP2;ratioP2;P2;SDS_P1;SDS_P2;PMS_P1;PMS_P2;Temp;Humidity;BMP_temperature;BMP_pressure;BME280_temperature;BME280_humidity;BME280_pressure;Samples;Min_cycle;Max_cycle;Signal;HPM_P1;HPM_P2
2022/11/30 00:00:17;;;;;;;55.03;25.30;;;;;;;;;;5080848;28;20447;-67
2022/11/30 00:02:44;;;;;;;46.63;24.00;;;;;;;;;;5080300;28;20517;-67
2022/11/30 00:05:11;;;;;;;52.00;22.53;;;;;;;;;;5080541;28;20468;-67
2022/11/30 00:07:38;;;;;;;54.60;26.17;;;;;;;;;;5079040;28;20456;-67
2022/11/30 00:10:08;;;;;;;52.97;23.50;;;;;;;;;;5084202;27;20454;-67
2022/11/30 00:12:36;;;;;;;53.87;22.47;;;;;;;;;;5099587;27;20467;-67
2022/11/30 00:15:03;;;;;;;48.13;24.60;;;;;;;;;;5098688;27;20467;-67
2022/11/30 00:17:30;;;;;;;53.50;22.97;;;;;;;;;;5099384;27;20490;-68
2022/11/30 00:19:57;;;;;;;47.43;22.63;;;;;;;;;;5098175;27;20450;-67
2022/11/30 00:22:24;;;;;;;54.37;25.53;;;;;;;;;;5098929;27;20458;-68
2022/11/30 00:24:51;;;;;;;50.27;21.97;;;;;;;;;;5099107;27;20443;-67
2022/11/30 00:27:18;;;;;;;64.33;27.20;;;;;;;;;;5098253;27;20829;-67
2022/11/30 00:29:45;;;;;;;53.73;26.80;;;;;;;;;;5100123;27;20511;-67
2022/11/30 00:32:12;;;;;;;49.07;21.57;;;;;;;;;;5098471;27;20520;-67
2022/11/30 00:34:39;;;;;;;51.33;25.80;;;;;;;;;;5099688;27;20741;-67
2022/11/30 00:37:06;;;;;;;53.13;24.47;;;;;;;;;;5100059;27;20491;-66
2022/11/30 00:39:36;;;;;;;55.47;26.83;;;;;;;;;;5098718;27;20443;-67
2022/11/30 00:42:03;;;;;;;55.10;22.73;;;;;;;;;;5080815;28;20488;-67
2022/11/30 00:44:32;;;;;;;50.73;27.30;;;;;;;;;;5078501;28;20449;-67
2022/11/30 00:47:02;;;;;;;55.77;26.10;;;;;;;;;;5079525;28;20529;-67
2022/11/30 00:49:29;;;;;;;59.20;23.23;;;;;;;;;;5078157;28;20463;-67
2022/11/30 00:51:56;;;;;;;54.17;25.70;;;;;;;;;;5096109;27;20490;-67
2022/11/30 00:54:23;;;;;;;58.40;27.13;;;;;;;;;;5098685;27;20458;-67
2022/11/30 00:56:50;;;;;;;53.33;23.93;;;;;;;;;;5099859;27;20467;-67
2022/11/30 00:59:17;;;;;;;55.07;26.80;;;;;;;;;;5098512;27;20864;-67
2022/11/30 01:01:44;;;;;;;60.10;24.97;;;;;;;;;;5082070;28;20522;-67
2022/11/30 01:04:12;;;;;;;62.23;25.17;;;;;;;;;;5078495;28;20742;-67
2022/11/30 01:06:39;;;;;;;59.00;26.27;;;;;;;;;;5078775;28;20461;-67
2022/11/30 01:09:06;;;;;;;64.37;25.93;;;;;;;;;;5078266;28;20453;-67
2022/11/30 01:11:33;;;;;;;54.27;27.97;;;;;;;;;;5078509;28;20613;-67
2022/11/30 01:14:01;;;;;;;50.23;22.73;;;;;;;;;;5078768;28;20463;-67
2022/11/30 01:16:29;;;;;;;58.77;26.13;;;;;;;;;;5077102;28;20487;-67
2022/11/30 01:18:56;;;;;;;71.67;24.10;;;;;;;;;;5077969;28;20607;-67
2022/11/30 01:21:25;;;;;;;60.23;26.97;;;;;;;;;;5078443;28;20445;-67
2022/11/30 01:23:52;;;;;;;52.43;23.60;;;;;;;;;;5076810;28;20581;-67
2022/11/30 01:26:20;;;;;;;52.03;24.83;;;;;;;;;;5078477;28;20998;-67
2022/11/30 01:28:50;;;;;;;46.40;23.70;;;;;;;;;;5078530;28;20747;-67
2022/11/30 01:31:17;;;;;;;53.83;24.80;;;;;;;;;;5077717;28;20445;-67
2022/11/30 01:33:48;;;;;;;55.57;24.10;;;;;;;;;;5078796;28;20455;-67
2022/11/30 01:36:16;;;;;;;54.53;24.37;;;;;;;;;;5077673;28;20453;-67
2022/11/30 01:38:45;;;;;;;58.87;24.30;;;;;;;;;;5083667;28;20509;-67
2022/11/30 01:41:13;;;;;;;53.17;24.23;;;;;;;;;;5098244;27;20470;-67
2022/11/30 01:43:42;;;;;;;61.10;25.67;;;;;;;;;;5097847;27;20504;-67
2022/11/30 01:46:18;;;;;;;52.50;21.87;;;;;;;;;;5098447;27;20467;-67
2022/11/30 01:48:46;;;;;;;59.90;22.87;;;;;;;;;;5093088;28;20731;-67
2022/11/30 01:51:13;;;;;;;53.90;23.70;;;;;;;;;;5078299;28;20895;-67
2022/11/30 01:53:46;;;;;;;61.63;25.47;;;;;;;;;;5078357;28;20444;-67
2022/11/30 01:56:13;;;;;;;60.37;24.60;;;;;;;;;;5077467;28;20452;-67
2022/11/30 01:58:40;;;;;;;57.47;25.87;;;;;;;;;;5082050;28;20512;-68
2022/11/30 02:01:07;;;;;;;50.17;23.60;;;;;;;;;;5099078;27;20527;-67
2022/11/30 02:03:36;;;;;;;58.67;25.80;;;;;;;;;;5097387;28;20568;-67
2022/11/30 02:06:02;;;;;;;53.30;25.97;;;;;;;;;;5096535;28;20744;-67
2022/11/30 02:08:32;;;;;;;51.30;23.87;;;;;;;;;;5096835;28;20474;-67
2022/11/30 02:11:03;;;;;;;55.10;23.87;;;;;;;;;;5098495;28;20501;-67
2022/11/30 02:13:41;;;;;;;70.57;27.60;;;;;;;;;;5097179;28;20579;-67
2022/11/30 02:16:19;;;;;;;59.87;25.23;;;;;;;;;;5097655;28;20456;-67
2022/11/30 02:18:49;;;;;;;61.57;27.10;;;;;;;;;;5096795;28;20489;-67
2022/11/30 02:21:19;;;;;;;64.80;23.57;;;;;;;;;;5098236;28;20469;-67
2022/11/30 02:23:55;;;;;;;61.53;24.83;;;;;;;;;;5093184;27;20452;-67
2022/11/30 02:26:36;;;;;;;60.33;24.10;;;;;;;;;;5076996;28;20500;-67
2022/11/30 02:29:13;;;;;;;54.13;26.37;;;;;;;;;;5078586;28;20827;-67
2022/11/30 02:31:43;;;;;;;60.30;27.80;;;;;;;;;;5077791;28;20460;-67
2022/11/30 02:34:11;;;;;;;52.87;23.27;;;;;;;;;;5076944;28;20542;-67
2022/11/30 02:36:38;;;;;;;49.00;21.90;;;;;;;;;;5077047;28;20876;-67
2022/11/30 02:39:05;;;;;;;55.13;23.37;;;;;;;;;;5076572;28;20515;-67
2022/11/30 02:41:36;;;;;;;53.17;25.17;;;;;;;;;;5076898;28;20461;-67
2022/11/30 02:44:04;;;;;;;62.43;24.37;;;;;;;;;;5076948;28;20872;-67
2022/11/30 02:46:35;;;;;;;56.07;25.63;;;;;;;;;;5076876;28;20482;-67
2022/11/30 02:49:07;;;;;;;54.63;21.97;;;;;;;;;;5083821;28;20534;-67
2022/11/30 02:51:35;;;;;;;54.93;25.03;;;;;;;;;;5091119;27;20555;-67
2022/11/30 02:54:02;;;;;;;68.10;24.73;;;;;;;;;;5076482;28;20441;-67
2022/11/30 02:56:30;;;;;;;66.93;23.37;;;;;;;;;;5076758;28;21220;-67
2022/11/30 02:58:57;;;;;;;63.70;23.10;;;;;;;;;;5076527;28;20496;-67
2022/11/30 03:01:24;;;;;;;57.80;23.90;;;;;;;;;;5076347;28;20857;-67
2022/11/30 03:03:58;;;;;;;54.17;23.37;;;;;;;;;;5076850;28;20725;-67
2022/11/30 03:06:25;;;;;;;59.63;25.10;;;;;;;;;;5076633;28;20551;-67
2022/11/30 03:08:52;;;;;;;64.10;26.97;;;;;;;;;;5081505;28;20440;-67
2022/11/30 03:11:19;;;;;;;62.97;26.80;;;;;;;;;;5076915;28;20448;-67
2022/11/30 03:13:46;;;;;;;57.90;26.97;;;;;;;;;;5076233;28;20736;-67
2022/11/30 03:16:13;;;;;;;63.50;25.80;;;;;;;;;;5076830;28;20453;-66
2022/11/30 03:18:41;;;;;;;63.73;26.13;;;;;;;;;;5076613;28;20494;-67
2022/11/30 03:21:09;;;;;;;54.77;25.93;;;;;;;;;;5079833;28;20920;-67
2022/11/30 03:23:39;;;;;;;58.07;26.00;;;;;;;;;;5079700;28;20502;-67
2022/11/30 03:26:07;;;;;;;46.73;22.17;;;;;;;;;;5079612;28;20737;-67
2022/11/30 03:28:34;;;;;;;63.03;24.93;;;;;;;;;;5079367;28;20463;-67
2022/11/30 03:31:01;;;;;;;56.73;27.43;;;;;;;;;;5080270;28;20531;-66
2022/11/30 03:33:28;;;;;;;60.83;25.93;;;;;;;;;;5079805;28;20457;-68
2022/11/30 03:36:05;;;;;;;68.70;25.20;;;;;;;;;;5080294;28;20475;-67
2022/11/30 03:38:33;;;;;;;72.50;27.10;;;;;;;;;;5079229;28;20950;-67
2022/11/30 03:41:01;;;;;;;58.50;25.57;;;;;;;;;;5080481;28;20490;-67
2022/11/30 03:43:28;;;;;;;64.60;26.23;;;;;;;;;;5079762;28;20448;-67
2022/11/30 03:45:55;;;;;;;63.20;26.07;;;;;;;;;;5079498;28;20506;-66
2022/11/30 03:48:22;;;;;;;60.23;28.30;;;;;;;;;;5079746;28;20464;-67
2022/11/30 03:50:49;;;;;;;70.60;26.60;;;;;;;;;;5079585;28;20452;-67
2022/11/30 03:53:16;;;;;;;55.70;23.03;;;;;;;;;;5079716;28;20452;-67
2022/11/30 03:55:44;;;;;;;54.23;23.67;;;;;;;;;;5079432;28;20518;-67
2022/11/30 03:58:11;;;;;;;61.07;25.93;;;;;;;;;;5080535;28;20545;-67
2022/11/30 04:00:38;;;;;;;55.90;28.40;;;;;;;;;;5086216;28;20509;-67
2022/11/30 04:03:05;;;;;;;67.27;26.57;;;;;;;;;;5099394;27;20465;-66
2022/11/30 04:05:35;;;;;;;72.43;26.50;;;;;;;;;;5099764;27;20924;-66
2022/11/30 04:08:02;;;;;;;65.43;24.40;;;;;;;;;;5100159;27;20821;-66
2022/11/30 04:10:29;;;;;;;67.87;23.30;;;;;;;;;;5099579;27;20443;-67
2022/11/30 04:12:57;;;;;;;52.13;23.30;;;;;;;;;;5099519;27;20554;-67
2022/11/30 04:15:24;;;;;;;57.90;24.17;;;;;;;;;;5098451;27;20463;-67
2022/11/30 04:17:51;;;;;;;65.10;26.20;;;;;;;;;;5099545;27;20837;-66
2022/11/30 04:20:18;;;;;;;58.20;24.97;;;;;;;;;;5098406;27;20452;-66
2022/11/30 04:22:45;;;;;;;54.60;25.40;;;;;;;;;;5098285;27;20481;-66
2022/11/30 04:25:12;;;;;;;74.97;25.37;;;;;;;;;;5099044;27;20448;-66
2022/11/30 04:27:39;;;;;;;59.40;23.23;;;;;;;;;;5098040;27;20474;-67
2022/11/30 04:30:08;;;;;;;67.10;27.00;;;;;;;;;;5098769;27;20444;-67
2022/11/30 04:32:35;;;;;;;56.53;25.00;;;;;;;;;;5099091;27;20570;-67
2022/11/30 04:35:02;;;;;;;58.53;26.77;;;;;;;;;;5099154;27;20447;-68
2022/11/30 04:37:29;;;;;;;65.23;25.73;;;;;;;;;;5099043;27;20549;-69
2022/11/30 04:39:56;;;;;;;67.93;26.77;;;;;;;;;;5098506;27;20516;-67
2022/11/30 04:42:23;;;;;;;64.13;24.00;;;;;;;;;;5097969;27;20456;-67
2022/11/30 04:44:50;;;;;;;63.20;26.70;;;;;;;;;;5098325;27;20450;-67
2022/11/30 04:47:17;;;;;;;51.47;25.17;;;;;;;;;;5098124;27;20851;-67
2022/11/30 04:49:45;;;;;;;52.37;24.70;;;;;;;;;;5099086;27;20451;-67
2022/11/30 04:52:12;;;;;;;77.63;26.80;;;;;;;;;;5098295;27;20719;-67
2022/11/30 04:54:39;;;;;;;66.27;25.10;;;;;;;;;;5097901;27;20486;-67
2022/11/30 04:57:06;;;;;;;60.33;25.30;;;;;;;;;;5099042;27;20470;-67
2022/11/30 04:59:33;;;;;;;56.10;23.67;;;;;;;;;;5098216;27;20909;-67
2022/11/30 05:02:00;;;;;;;61.83;23.07;;;;;;;;;;5099014;27;20534;-67
2022/11/30 05:04:28;;;;;;;61.77;24.70;;;;;;;;;;5097586;27;21070;-67
2022/11/30 05:06:55;;;;;;;50.97;23.67;;;;;;;;;;5098127;27;20441;-67
2022/11/30 05:09:22;;;;;;;60.73;25.33;;;;;;;;;;5099318;27;20892;-67
2022/11/30 05:11:48;;;;;;;56.33;25.23;;;;;;;;;;5098259;27;21023;-67
2022/11/30 05:14:16;;;;;;;51.73;25.33;;;;;;;;;;5098400;27;20478;-67
2022/11/30 05:16:43;;;;;;;65.67;25.63;;;;;;;;;;5097758;27;20513;-67
2022/11/30 05:19:13;;;;;;;66.13;27.40;;;;;;;;;;5098883;27;20506;-67
2022/11/30 05:21:41;;;;;;;58.40;23.30;;;;;;;;;;5098196;27;20456;-67
2022/11/30 05:24:08;;;;;;;50.97;24.00;;;;;;;;;;5098173;27;20447;-67
2022/11/30 05:26:35;;;;;;;53.80;22.70;;;;;;;;;;5098269;27;20506;-67
2022/11/30 05:29:03;;;;;;;61.77;23.90;;;;;;;;;;5077409;28;20449;-67
2022/11/30 05:31:35;;;;;;;58.63;24.40;;;;;;;;;;5079681;28;20456;-65
2022/11/30 05:34:02;;;;;;;67.07;25.37;;;;;;;;;;5077203;28;20460;-66
2022/11/30 05:36:32;;;;;;;62.40;24.67;;;;;;;;;;5077170;28;20521;-67
2022/11/30 05:41:49;;;;;;;56.80;22.53;;;;;;;;;;5075788;28;20884;-66
2022/11/30 05:44:16;;;;;;;59.53;25.07;;;;;;;;;;5078750;28;20448;-67
2022/11/30 05:46:43;;;;;;;55.50;25.63;;;;;;;;;;5093709;27;20463;-67
2022/11/30 05:49:16;;;;;;;52.80;24.90;;;;;;;;;;5090624;27;20889;-67
2022/11/30 05:51:44;;;;;;;54.87;23.97;;;;;;;;;;5086101;28;20431;-67
2022/11/30 05:54:12;;;;;;;53.07;23.63;;;;;;;;;;5096307;28;20475;-67
2022/11/30 05:56:39;;;;;;;60.13;24.13;;;;;;;;;;5096526;28;20474;-67
2022/11/30 05:59:06;;;;;;;60.50;24.43;;;;;;;;;;5096124;28;20556;-67
2022/11/30 06:01:33;;;;;;;58.20;21.23;;;;;;;;;;5096159;28;20478;-68
2022/11/30 06:04:03;;;;;;;63.90;26.00;;;;;;;;;;5096248;27;20448;-69
2022/11/30 06:06:37;;;;;;;67.23;26.70;;;;;;;;;;5097398;27;20470;-70
2022/11/30 06:09:04;;;;;;;47.90;21.87;;;;;;;;;;5114663;27;20451;-67
2022/11/30 06:11:35;;;;;;;62.77;23.00;;;;;;;;;;5118067;27;20841;-66
2022/11/30 06:14:02;;;;;;;50.60;22.70;;;;;;;;;;5097343;27;20776;-68
2022/11/30 06:16:29;;;;;;;53.37;23.37;;;;;;;;;;5094898;27;20546;-68
2022/11/30 06:18:57;;;;;;;49.13;22.30;;;;;;;;;;5096347;27;20486;-67
2022/11/30 06:21:24;;;;;;;56.50;25.40;;;;;;;;;;5095429;27;21061;-67
2022/11/30 06:23:52;;;;;;;52.97;25.70;;;;;;;;;;5094012;28;20455;-67
2022/11/30 06:26:19;;;;;;;66.67;25.00;;;;;;;;;;5094320;28;20536;-67
2022/11/30 06:28:49;;;;;;;55.87;25.63;;;;;;;;;;5094519;28;20470;-67
2022/11/30 06:31:16;;;;;;;56.70;21.87;;;;;;;;;;5095647;28;20594;-67
2022/11/30 06:33:48;;;;;;;65.20;22.70;;;;;;;;;;5093775;28;20724;-67
2022/11/30 06:36:20;;;;;;;51.43;24.87;;;;;;;;;;5092940;28;20479;-67
2022/11/30 06:38:50;;;;;;;52.43;21.20;;;;;;;;;;5094253;28;20491;-67
2022/11/30 06:41:23;;;;;;;50.97;20.83;;;;;;;;;;5093461;28;20446;-67
2022/11/30 06:43:52;;;;;;;55.40;24.37;;;;;;;;;;5089227;28;20464;-67
2022/11/30 06:46:23;;;;;;;55.50;22.80;;;;;;;;;;5074275;28;20756;-68
2022/11/30 06:48:50;;;;;;;51.07;20.60;;;;;;;;;;5085160;27;20467;-67
2022/11/30 06:51:17;;;;;;;53.93;21.70;;;;;;;;;;5075697;28;20455;-67
2022/11/30 06:53:44;;;;;;;44.63;20.20;;;;;;;;;;5084286;27;20468;-67
2022/11/30 06:56:17;;;;;;;45.63;19.90;;;;;;;;;;5084399;27;20865;-67
2022/11/30 06:58:45;;;;;;;47.67;22.10;;;;;;;;;;5078857;28;20485;-68
2022/11/30 07:01:17;;;;;;;52.43;22.47;;;;;;;;;;5073840;28;20448;-68
2022/11/30 07:03:49;;;;;;;47.67;22.17;;;;;;;;;;5073488;28;20517;-67
2022/11/30 07:06:25;;;;;;;53.57;23.87;;;;;;;;;;5072984;28;20449;-67
2022/11/30 07:08:56;;;;;;;52.33;22.50;;;;;;;;;;5092221;28;20565;-66
2022/11/30 07:11:28;;;;;;;41.10;21.47;;;;;;;;;;5093905;27;20741;-67
2022/11/30 07:13:55;;;;;;;49.63;22.10;;;;;;;;;;5094101;27;20440;-67
2022/11/30 07:16:23;;;;;;;54.20;22.10;;;;;;;;;;5093561;27;20533;-67
2022/11/30 07:18:50;;;;;;;55.20;23.60;;;;;;;;;;5091922;28;20490;-67
2022/11/30 07:21:17;;;;;;;51.33;21.77;;;;;;;;;;5093769;27;20546;-67
2022/11/30 07:26:32;;;;;;;52.77;23.10;;;;;;;;;;5093412;27;20542;-67
2022/11/30 07:28:59;;;;;;;54.13;22.60;;;;;;;;;;5094896;27;20990;-67
2022/11/30 07:31:29;;;;;;;74.73;25.00;;;;;;;;;;5094837;27;20463;-67
2022/11/30 07:33:57;;;;;;;56.57;23.57;;;;;;;;;;5088774;27;20488;-67
2022/11/30 07:36:25;;;;;;;118.77;50.67;;;;;;;;;;5095296;27;20914;-67
2022/11/30 07:38:55;;;;;;;52.20;23.00;;;;;;;;;;5091139;27;20484;-67
2022/11/30 07:41:29;;;;;;;63.47;24.20;;;;;;;;;;5114154;27;20523;-67
2022/11/30 07:44:10;;;;;;;49.97;21.27;;;;;;;;;;5096724;27;20467;-67
2022/11/30 07:46:42;;;;;;;53.47;22.53;;;;;;;;;;5085138;27;20895;-67
2022/11/30 07:49:10;;;;;;;56.93;24.50;;;;;;;;;;5091961;27;20470;-68
2022/11/30 07:51:44;;;;;;;64.23;26.80;;;;;;;;;;5088602;28;20466;-67
2022/11/30 07:54:20;;;;;;;59.77;25.27;;;;;;;;;;5089674;28;20914;-67
2022/11/30 07:56:55;;;;;;;56.50;22.40;;;;;;;;;;5092439;27;20707;-67
2022/11/30 07:59:26;;;;;;;54.57;22.57;;;;;;;;;;5078693;27;20899;-67
2022/11/30 08:01:59;;;;;;;58.37;24.47;;;;;;;;;;5076049;28;20464;-67
2022/11/30 08:04:32;;;;;;;54.47;21.63;;;;;;;;;;5083227;28;20600;-68
2022/11/30 08:07:03;;;;;;;65.40;29.07;;;;;;;;;;5083089;27;20464;-67
2022/11/30 08:09:37;;;;;;;99.80;36.73;;;;;;;;;;5085688;27;20550;-68
2022/11/30 08:12:18;;;;;;;56.73;27.67;;;;;;;;;;5092297;27;20463;-68
2022/11/30 08:14:53;;;;;;;57.97;23.37;;;;;;;;;;5091551;27;20879;-66
2022/11/30 08:17:31;;;;;;;53.70;24.70;;;;;;;;;;5089475;27;20471;-68
2022/11/30 08:20:03;;;;;;;59.60;22.43;;;;;;;;;;5092221;27;20467;-67
2022/11/30 08:22:36;;;;;;;55.70;22.03;;;;;;;;;;5089972;27;20465;-68
2022/11/30 08:25:15;;;;;;;74.07;36.03;;;;;;;;;;5080308;28;20463;-68
2022/11/30 08:30:57;;;;;;;60.97;24.90;;;;;;;;;;5086841;27;20551;-68
2022/11/30 08:33:45;;;;;;;70.53;29.33;;;;;;;;;;5106072;28;20454;-68
2022/11/30 08:36:18;;;;;;;54.33;23.30;;;;;;;;;;5111549;27;20897;-68
2022/11/30 08:38:48;;;;;;;53.37;24.67;;;;;;;;;;5078965;28;20485;-69
2022/11/30 08:41:34;;;;;;;57.30;24.93;;;;;;;;;;5086118;27;20586;-68
2022/11/30 08:44:02;;;;;;;59.77;24.60;;;;;;;;;;5082268;27;20460;-68
2022/11/30 08:46:29;;;;;;;53.50;23.33;;;;;;;;;;5083585;28;20559;-68
2022/11/30 08:49:03;;;;;;;69.83;28.73;;;;;;;;;;5080677;27;20531;-69
2022/11/30 08:51:51;;;;;;;83.40;32.53;;;;;;;;;;5083319;28;20573;-69
2022/11/30 08:54:41;;;;;;;57.30;22.70;;;;;;;;;;5083241;28;20564;-69
2022/11/30 08:57:16;;;;;;;84.60;33.90;;;;;;;;;;5082746;27;20909;-69
2022/11/30 08:59:47;;;;;;;55.77;24.53;;;;;;;;;;5088017;27;20903;-68
2022/11/30 09:02:28;;;;;;;57.43;26.70;;;;;;;;;;5080893;28;20468;-68
2022/11/30 09:07:51;;;;;;;52.17;22.60;;;;;;;;;;5090221;27;20494;-69
2022/11/30 09:10:23;;;;;;;59.73;26.60;;;;;;;;;;5081389;28;20849;-68
2022/11/30 09:12:57;;;;;;;51.20;23.97;;;;;;;;;;5087203;27;20466;-69
2022/11/30 09:15:25;;;;;;;58.07;24.70;;;;;;;;;;5088291;27;20467;-68
2022/11/30 09:17:59;;;;;;;63.23;26.70;;;;;;;;;;5087018;28;21062;-69
2022/11/30 09:20:50;;;;;;;68.10;25.40;;;;;;;;;;5085002;27;20460;-69
2022/11/30 09:23:18;;;;;;;56.43;25.03;;;;;;;;;;5090700;28;20437;-70
2022/11/30 09:28:47;;;;;;;52.40;26.50;;;;;;;;;;5080748;28;20464;-69
2022/11/30 09:31:20;;;;;;;65.70;23.40;;;;;;;;;;5090687;27;20499;-70
2022/11/30 09:33:53;;;;;;;58.03;27.07;;;;;;;;;;5086999;27;20967;-69
2022/11/30 09:36:22;;;;;;;56.53;24.37;;;;;;;;;;5083389;27;20525;-69
2022/11/30 09:38:50;;;;;;;63.97;25.50;;;;;;;;;;5084828;28;20885;-69
2022/11/30 09:41:29;;;;;;;69.00;27.50;;;;;;;;;;5081775;28;20482;-69
2022/11/30 09:44:05;;;;;;;62.90;26.60;;;;;;;;;;5089414;27;20484;-68
2022/11/30 09:46:37;;;;;;;82.50;25.23;;;;;;;;;;5077554;27;20479;-69
2022/11/30 09:49:06;;;;;;;62.77;26.20;;;;;;;;;;5081922;28;20518;-68
2022/11/30 09:51:39;;;;;;;57.47;23.67;;;;;;;;;;5091285;27;20817;-69
2022/11/30 09:54:14;;;;;;;64.27;27.57;;;;;;;;;;5095793;27;20458;-68
2022/11/30 09:56:45;;;;;;;67.70;29.00;;;;;;;;;;5089813;27;20467;-68
2022/11/30 09:59:17;;;;;;;71.10;26.43;;;;;;;;;;5095075;27;20893;-68
2022/11/30 10:01:47;;;;;;;51.47;23.30;;;;;;;;;;5079139;28;20441;-67
2022/11/30 10:04:41;;;;;;;68.10;25.80;;;;;;;;;;5077416;28;20463;-67
2022/11/30 10:07:15;;;;;;;60.47;26.47;;;;;;;;;;5084426;28;20475;-67
2022/11/30 10:12:43;;;;;;;63.37;27.30;;;;;;;;;;5089973;27;20467;-68
2022/11/30 10:15:34;;;;;;;64.67;28.40;;;;;;;;;;5096441;27;20448;-68
2022/11/30 10:21:43;;;;;;;67.10;28.20;;;;;;;;;;5090350;27;20494;-67
2022/11/30 10:27:44;;;;;;;64.40;27.53;;;;;;;;;;5085578;27;22063;-67
2022/11/30 10:30:20;;;;;;;70.77;29.77;;;;;;;;;;5083932;28;20478;-67
2022/11/30 10:32:57;;;;;;;72.33;26.67;;;;;;;;;;5091724;27;20491;-67
2022/11/30 10:35:42;;;;;;;66.87;29.03;;;;;;;;;;5072315;28;21069;-67
2022/11/30 10:38:16;;;;;;;64.80;27.40;;;;;;;;;;5090430;27;20518;-67
2022/11/30 10:40:51;;;;;;;79.97;32.60;;;;;;;;;;5092299;27;20451;-67
2022/11/30 10:43:24;;;;;;;68.80;27.10;;;;;;;;;;5088337;27;21049;-66
2022/11/30 10:45:56;;;;;;;63.03;27.03;;;;;;;;;;5088205;28;20619;-67
2022/11/30 10:48:44;;;;;;;65.57;28.27;;;;;;;;;;5073631;28;20892;-65
2022/11/30 10:51:11;;;;;;;64.20;27.73;;;;;;;;;;5075685;27;20459;-66
2022/11/30 10:53:39;;;;;;;73.20;31.60;;;;;;;;;;5091513;27;20517;-67
2022/11/30 10:56:14;;;;;;;85.43;30.13;;;;;;;;;;5079477;28;20871;-66
2022/11/30 10:59:10;;;;;;;81.83;31.27;;;;;;;;;;5083185;28;20495;-69
2022/11/30 11:01:53;;;;;;;82.57;35.10;;;;;;;;;;5077021;28;20993;-68
2022/11/30 11:04:31;;;;;;;85.53;32.07;;;;;;;;;;5074663;28;20456;-70
2022/11/30 11:07:06;;;;;;;79.90;32.77;;;;;;;;;;5074259;28;20460;-70
2022/11/30 11:09:54;;;;;;;78.97;31.50;;;;;;;;;;5088246;27;20485;-69
2022/11/30 11:12:31;;;;;;;72.63;28.83;;;;;;;;;;5076077;28;20996;-68
2022/11/30 11:15:19;;;;;;;82.50;34.57;;;;;;;;;;5075297;28;20444;-69
2022/11/30 11:17:46;;;;;;;77.90;28.67;;;;;;;;;;5080723;28;20723;-68
2022/11/30 11:20:42;;;;;;;100.93;30.17;;;;;;;;;;5085710;27;20553;-69
2022/11/30 11:23:23;;;;;;;109.97;30.30;;;;;;;;;;5054523;27;20500;-68
2022/11/30 11:25:59;;;;;;;86.30;27.90;;;;;;;;;;5088723;27;20452;-68
2022/11/30 11:28:35;;;;;;;90.13;29.40;;;;;;;;;;5078430;28;20463;-68
2022/11/30 11:31:15;;;;;;;79.67;30.10;;;;;;;;;;5091049;28;20450;-67
2022/11/30 11:33:50;;;;;;;59.67;26.80;;;;;;;;;;5074456;28;20452;-69
2022/11/30 11:36:28;;;;;;;65.87;26.73;;;;;;;;;;5087857;27;20531;-69
2022/11/30 11:38:58;;;;;;;69.17;28.07;;;;;;;;;;5092380;27;20913;-69
2022/11/30 11:41:27;;;;;;;68.23;27.87;;;;;;;;;;5095411;27;20435;-69
2022/11/30 11:44:04;;;;;;;63.73;27.80;;;;;;;;;;5096623;27;20455;-69
2022/11/30 11:46:39;;;;;;;63.80;27.53;;;;;;;;;;5094789;27;20527;-70
2022/11/30 11:49:19;;;;;;;64.47;28.23;;;;;;;;;;5092857;27;20796;-69
2022/11/30 11:51:51;;;;;;;51.00;24.00;;;;;;;;;;5080253;27;20955;-70
2022/11/30 11:54:22;;;;;;;54.30;24.97;;;;;;;;;;5076585;28;20498;-70
2022/11/30 11:57:07;;;;;;;55.43;26.07;;;;;;;;;;5089964;27;21020;-71
2022/11/30 11:59:47;;;;;;;62.77;26.97;;;;;;;;;;5088390;27;20490;-70
2022/11/30 12:02:43;;;;;;;76.03;31.83;;;;;;;;;;5077118;28;20466;-69
2022/11/30 12:05:14;;;;;;;55.10;24.07;;;;;;;;;;5077468;28;20453;-69
2022/11/30 12:07:47;;;;;;;70.93;24.43;;;;;;;;;;5084410;27;20540;-70
2022/11/30 12:10:46;;;;;;;56.10;23.30;;;;;;;;;;5093700;27;20459;-71
2022/11/30 12:13:17;;;;;;;54.53;20.90;;;;;;;;;;5094898;27;20479;-70
2022/11/30 12:15:53;;;;;;;64.33;25.97;;;;;;;;;;5097092;27;20501;-70
2022/11/30 12:18:33;;;;;;;54.77;24.70;;;;;;;;;;5095651;27;20489;-70
2022/11/30 12:21:06;;;;;;;54.00;24.00;;;;;;;;;;5097021;28;20466;-70
2022/11/30 12:23:54;;;;;;;62.90;27.57;;;;;;;;;;5092773;28;20448;-70
2022/11/30 12:26:31;;;;;;;60.83;27.07;;;;;;;;;;5096568;28;20479;-70
2022/11/30 12:29:10;;;;;;;60.73;26.17;;;;;;;;;;5094817;28;20507;-71
2022/11/30 12:31:54;;;;;;;74.20;28.13;;;;;;;;;;5077623;28;20529;-72
2022/11/30 12:34:37;;;;;;;67.10;26.40;;;;;;;;;;5095538;27;20463;-71
2022/11/30 12:37:13;;;;;;;62.60;27.23;;;;;;;;;;5091363;27;20516;-70
2022/11/30 12:39:45;;;;;;;84.77;39.67;;;;;;;;;;5094944;27;20637;-70
2022/11/30 12:42:19;;;;;;;73.57;26.93;;;;;;;;;;5079225;28;20530;-70
2022/11/30 12:44:57;;;;;;;78.83;27.77;;;;;;;;;;5096838;27;20452;-71
2022/11/30 12:47:43;;;;;;;65.57;25.20;;;;;;;;;;5088553;28;20459;-71
2022/11/30 12:50:35;;;;;;;67.40;28.33;;;;;;;;;;5095254;28;20452;-71
2022/11/30 12:53:13;;;;;;;62.73;26.87;;;;;;;;;;5095045;28;20690;-72
2022/11/30 12:55:54;;;;;;;62.67;24.40;;;;;;;;;;5096069;28;20451;-71
2022/11/30 12:58:26;;;;;;;54.70;24.53;;;;;;;;;;5091960;27;20560;-69
2022/11/30 13:00:59;;;;;;;59.90;26.37;;;;;;;;;;5086283;28;20455;-71
2022/11/30 13:03:42;;;;;;;62.60;25.70;;;;;;;;;;5086212;27;21104;-70
2022/11/30 13:06:22;;;;;;;69.17;25.30;;;;;;;;;;5083000;27;20428;-71
2022/11/30 13:08:59;;;;;;;63.37;28.50;;;;;;;;;;5095086;28;20459;-71
2022/11/30 13:11:30;;;;;;;54.10;24.73;;;;;;;;;;5095248;28;20498;-71
2022/11/30 13:14:01;;;;;;;63.73;25.60;;;;;;;;;;5076544;28;20761;-70
2022/11/30 13:19:30;;;;;;;67.80;26.90;;;;;;;;;;5093715;27;20491;-71
2022/11/30 13:22:20;;;;;;;59.13;27.70;;;;;;;;;;5084659;28;20444;-72
2022/11/30 13:24:53;;;;;;;66.63;26.37;;;;;;;;;;5075723;27;20539;-71
2022/11/30 13:27:26;;;;;;;70.83;31.60;;;;;;;;;;5075439;28;20453;-72
2022/11/30 13:30:27;;;;;;;64.23;26.60;;;;;;;;;;5083311;28;20467;-71
2022/11/30 13:32:55;;;;;;;53.43;24.93;;;;;;;;;;5069985;28;20464;-70
2022/11/30 13:35:51;;;;;;;66.43;27.43;;;;;;;;;;5088381;27;20432;-71
2022/11/30 13:38:29;;;;;;;62.37;27.07;;;;;;;;;;5092116;27;20475;-72
2022/11/30 13:41:04;;;;;;;58.87;26.33;;;;;;;;;;5078862;27;20566;-71
2022/11/30 13:43:43;;;;;;;79.97;32.40;;;;;;;;;;5100309;27;20732;-71
2022/11/30 13:46:16;;;;;;;65.37;29.47;;;;;;;;;;5080228;28;20468;-71
2022/11/30 13:48:44;;;;;;;72.90;28.10;;;;;;;;;;5080924;28;20476;-70
2022/11/30 13:51:39;;;;;;;62.03;28.63;;;;;;;;;;5079918;27;20444;-69
2022/11/30 13:54:30;;;;;;;55.60;26.13;;;;;;;;;;5088978;27;20508;-70
2022/11/30 13:57:02;;;;;;;59.57;26.30;;;;;;;;;;5060119;28;20526;-70
2022/11/30 13:59:39;;;;;;;66.70;30.70;;;;;;;;;;5087169;27;20612;-71
2022/11/30 14:02:26;;;;;;;69.80;31.63;;;;;;;;;;5081370;27;20785;-71
2022/11/30 14:04:54;;;;;;;59.40;26.13;;;;;;;;;;5089114;28;20959;-69
2022/11/30 14:07:40;;;;;;;66.40;27.37;;;;;;;;;;5092150;28;20454;-71
2022/11/30 14:13:46;;;;;;;69.30;28.30;;;;;;;;;;5086508;28;20464;-70
2022/11/30 14:16:37;;;;;;;61.57;30.50;;;;;;;;;;5092451;27;20463;-70
2022/11/30 14:19:44;;;;;;;61.30;27.83;;;;;;;;;;5097405;27;20775;-70
2022/11/30 14:22:14;;;;;;;72.13;27.40;;;;;;;;;;5090473;28;20517;-70
2022/11/30 14:24:52;;;;;;;66.67;27.80;;;;;;;;;;5095852;27;20444;-71
2022/11/30 14:30:41;;;;;;;87.07;33.23;;;;;;;;;;5089740;27;20444;-72
2022/11/30 14:37:05;;;;;;;69.13;27.87;;;;;;;;;;5058980;28;20716;-69
2022/11/30 14:39:57;;;;;;;76.90;31.00;;;;;;;;;;5096081;27;20486;-70
2022/11/30 14:42:39;;;;;;;67.63;28.07;;;;;;;;;;5103901;27;20462;-71
2022/11/30 14:45:28;;;;;;;70.63;29.67;;;;;;;;;;5090822;27;20910;-70
2022/11/30 14:48:30;;;;;;;84.77;33.50;;;;;;;;;;5096472;27;20489;-71
2022/11/30 14:54:40;;;;;;;88.83;30.23;;;;;;;;;;5048668;27;20467;-71
2022/11/30 14:57:31;;;;;;;66.17;30.43;;;;;;;;;;5096761;27;20461;-72
2022/11/30 15:00:10;;;;;;;75.80;31.77;;;;;;;;;;5086754;27;20568;-71
2022/11/30 15:05:58;;;;;;;81.53;30.83;;;;;;;;;;5093197;27;20927;-73
2022/11/30 15:08:46;;;;;;;86.23;35.60;;;;;;;;;;5084909;27;20469;-72
2022/11/30 15:11:18;;;;;;;66.40;28.97;;;;;;;;;;5087419;28;20479;-72
2022/11/30 15:13:57;;;;;;;86.00;32.23;;;;;;;;;;5088403;28;20480;-72
2022/11/30 15:16:29;;;;;;;73.87;32.17;;;;;;;;;;5097467;28;20482;-72
2022/11/30 15:18:58;;;;;;;82.43;31.70;;;;;;;;;;5088927;28;20543;-73
2022/11/30 15:21:31;;;;;;;88.33;33.20;;;;;;;;;;5077884;28;21035;-72
2022/11/30 15:23:59;;;;;;;79.97;32.67;;;;;;;;;;5113832;28;20484;-72
2022/11/30 15:26:34;;;;;;;82.40;31.60;;;;;;;;;;5113783;28;20860;-73
2022/11/30 15:29:19;;;;;;;74.90;32.90;;;;;;;;;;5091878;28;20766;-74
2022/11/30 15:31:57;;;;;;;81.57;32.07;;;;;;;;;;5087093;28;20548;-72